Rocklake, North Dakota
Current Conditions -  °F | °C
As of 1:35 PM on Thursday 18 Dec 2014 (Local Time) from K06D Reporting Station
Overcast Overcast  
Wind Chill:   Ceiling: 800
Heat Index: 16°   Visibility: 10mi
Dew Point: 16°   Wind: 12mph
Humidity: 100%   Direction: 190°S
Pressure: 30.05"   Gusts: NA
Location:  48.79°N, 99.25°W
Report Text: K06D 181935Z AUTO 19010KT 10SM OVC008 M09/M09 A3005 RMK AO2
Loading
Personal Weather Stations






























Interactive Weather Map New forecast layout! Learn more

10-Day Weather Forecast

Advertisements
Track Severe Weather on mobile